Tucker, Georgia
Current Conditions -  °F | °C
As of 8:53 PM on Saturday 20 Dec 2014 (Local Time) from KPDK Reporting Station
Haze Haze  
Wind Chill: 47°   Ceiling: 1300
Heat Index: 47°   Visibility: 5mi
Dew Point: 43°   Wind: 3mph
Humidity: 86%   Direction: 80°E
Pressure: 30.2"   Gusts: NA
Location:  33.85°N, 84.21°W
Report Text: KPDK 210153Z 08003KT 5SM BR OVC013 08/06 A3020 RMK AO2 SLP232 T00830061
Loading
Personal Weather Stations






























Interactive Weather Map New forecast layout! Learn more

10-Day Weather Forecast

Advertisements
Track Severe Weather on mobile